KPDK

DeKalb-Peachtree

Airport
ICAO code
KPDK
IATA Code
PDK
Summary
ICAO Region
NAM
ICAO Territory
Location

Chamblee, Georgia

Serving
Atlanta
Elevation
1003 ft
Coordinates
33° 52' 32" N , 84° 18' 7" W
KCC
Airport LOS
Parallel Runway Operation
Metar
KPDK 181353Z 31005KT 10SM CLR 21/17 A3012 RMK AO2 SLP189 T02110172

Description

DeKalb-Peachtree Airport is a municipal general aviation airport located in Chamblee, Georgia, just northeast of Atlanta.

Runways

Designator Length Width Surface Rops
9/27 1031 46 ASP Yes/Yes
02L/20R 1142 46 ASP Yes/Yes
16/34 1209 46 ASP Yes/Yes
02R/20L 1829 30 CON Yes/Yes

Airport map

Aerial View

SKYbrary Partners:

Safety knowledge contributed by: